sensor_id;sensor_type;location;lat;lon;timestamp;temperature;humidity
79571;DHT22;69034;49.444;7.758;2024-01-30T00:00:29;6.10;74.00
79571;DHT22;69034;49.444;7.758;2024-01-30T00:04:29;6.10;74.00
79571;DHT22;69034;49.444;7.758;2024-01-30T00:08:30;6.10;73.90
79571;DHT22;69034;49.444;7.758;2024-01-30T00:12:31;6.00;74.00
79571;DHT22;69034;49.444;7.758;2024-01-30T00:16:32;5.90;74.00
79571;DHT22;69034;49.444;7.758;2024-01-30T00:20:33;5.90;73.90
79571;DHT22;69034;49.444;7.758;2024-01-30T00:24:33;5.80;73.90
79571;DHT22;69034;49.444;7.758;2024-01-30T00:28:34;5.80;73.90
79571;DHT22;69034;49.444;7.758;2024-01-30T00:32:35;5.80;74.00
79571;DHT22;69034;49.444;7.758;2024-01-30T00:36:35;5.70;73.90
79571;DHT22;69034;49.444;7.758;2024-01-30T00:40:36;5.70;73.90
79571;DHT22;69034;49.444;7.758;2024-01-30T00:44:37;5.70;73.90
79571;DHT22;69034;49.444;7.758;2024-01-30T00:48:38;5.60;73.90
79571;DHT22;69034;49.444;7.758;2024-01-30T00:52:39;5.60;73.80
79571;DHT22;69034;49.444;7.758;2024-01-30T00:56:41;5.60;73.80
79571;DHT22;69034;49.444;7.758;2024-01-30T01:00:42;5.50;73.80
79571;DHT22;69034;49.444;7.758;2024-01-30T01:04:43;5.50;73.90
79571;DHT22;69034;49.444;7.758;2024-01-30T01:08:44;5.50;73.90
79571;DHT22;69034;49.444;7.758;2024-01-30T01:12:45;5.50;73.90
79571;DHT22;69034;49.444;7.758;2024-01-30T01:16:46;5.40;73.90
79571;DHT22;69034;49.444;7.758;2024-01-30T01:20:46;5.40;73.90
79571;DHT22;69034;49.444;7.758;2024-01-30T01:24:47;5.40;73.90
79571;DHT22;69034;49.444;7.758;2024-01-30T01:28:47;5.30;73.90
79571;DHT22;69034;49.444;7.758;2024-01-30T01:32:49;5.30;73.90
79571;DHT22;69034;49.444;7.758;2024-01-30T01:36:55;5.30;73.90
79571;DHT22;69034;49.444;7.758;2024-01-30T01:40:55;5.30;73.90
79571;DHT22;69034;49.444;7.758;2024-01-30T01:44:56;5.20;73.90
79571;DHT22;69034;49.444;7.758;2024-01-30T01:48:56;5.20;73.90
79571;DHT22;69034;49.444;7.758;2024-01-30T01:52:58;5.20;74.00
79571;DHT22;69034;49.444;7.758;2024-01-30T01:57:00;5.20;73.80
79571;DHT22;69034;49.444;7.758;2024-01-30T02:01:01;5.20;73.80
79571;DHT22;69034;49.444;7.758;2024-01-30T02:05:02;5.20;73.90
79571;DHT22;69034;49.444;7.758;2024-01-30T02:09:03;5.10;73.80
79571;DHT22;69034;49.444;7.758;2024-01-30T02:13:04;5.10;73.80
79571;DHT22;69034;49.444;7.758;2024-01-30T02:17:05;5.10;73.70
79571;DHT22;69034;49.444;7.758;2024-01-30T02:21:06;5.00;73.70
79571;DHT22;69034;49.444;7.758;2024-01-30T02:25:06;5.00;73.70
79571;DHT22;69034;49.444;7.758;2024-01-30T02:29:07;5.00;73.70
79571;DHT22;69034;49.444;7.758;2024-01-30T02:33:08;4.90;73.70
79571;DHT22;69034;49.444;7.758;2024-01-30T02:37:08;4.90;73.80
79571;DHT22;69034;49.444;7.758;2024-01-30T02:41:09;4.90;73.80
79571;DHT22;69034;49.444;7.758;2024-01-30T02:45:10;4.80;73.80
79571;DHT22;69034;49.444;7.758;2024-01-30T02:49:10;4.80;73.80
79571;DHT22;69034;49.444;7.758;2024-01-30T02:53:11;4.80;73.80
79571;DHT22;69034;49.444;7.758;2024-01-30T02:57:12;4.80;73.90
79571;DHT22;69034;49.444;7.758;2024-01-30T03:01:12;4.80;73.80
79571;DHT22;69034;49.444;7.758;2024-01-30T03:05:13;4.80;73.90
79571;DHT22;69034;49.444;7.758;2024-01-30T03:09:15;4.70;73.80
79571;DHT22;69034;49.444;7.758;2024-01-30T03:13:15;4.70;73.80
79571;DHT22;69034;49.444;7.758;2024-01-30T03:17:16;4.70;73.80
79571;DHT22;69034;49.444;7.758;2024-01-30T03:21:16;4.70;73.80
79571;DHT22;69034;49.444;7.758;2024-01-30T03:25:17;4.60;73.80
79571;DHT22;69034;49.444;7.758;2024-01-30T03:29:17;4.60;73.80
79571;DHT22;69034;49.444;7.758;2024-01-30T03:33:18;4.60;73.80
79571;DHT22;69034;49.444;7.758;2024-01-30T03:37:19;4.60;73.70
79571;DHT22;69034;49.444;7.758;2024-01-30T03:41:19;4.60;73.70
79571;DHT22;69034;49.444;7.758;2024-01-30T03:45:20;4.60;73.70
79571;DHT22;69034;49.444;7.758;2024-01-30T03:49:21;4.60;73.70
79571;DHT22;69034;49.444;7.758;2024-01-30T03:53:21;4.50;73.60
79571;DHT22;69034;49.444;7.758;2024-01-30T03:57:22;4.50;73.60
79571;DHT22;69034;49.444;7.758;2024-01-30T04:01:22;4.50;73.60
79571;DHT22;69034;49.444;7.758;2024-01-30T04:05:23;4.50;73.60
79571;DHT22;69034;49.444;7.758;2024-01-30T04:09:23;4.40;73.60
79571;DHT22;69034;49.444;7.758;2024-01-30T04:13:24;4.40;73.60
79571;DHT22;69034;49.444;7.758;2024-01-30T04:17:24;4.40;73.60
79571;DHT22;69034;49.444;7.758;2024-01-30T04:21:25;4.40;73.60
79571;DHT22;69034;49.444;7.758;2024-01-30T04:25:26;4.40;73.60
79571;DHT22;69034;49.444;7.758;2024-01-30T04:29:26;4.30;73.60
79571;DHT22;69034;49.444;7.758;2024-01-30T04:33:27;4.30;73.50
79571;DHT22;69034;49.444;7.758;2024-01-30T04:37:27;4.30;73.50
79571;DHT22;69034;49.444;7.758;2024-01-30T04:41:28;4.30;73.50
79571;DHT22;69034;49.444;7.758;2024-01-30T04:45:31;4.30;73.50
79571;DHT22;69034;49.444;7.758;2024-01-30T04:49:32;4.30;73.50
79571;DHT22;69034;49.444;7.758;2024-01-30T04:53:32;4.30;73.50
79571;DHT22;69034;49.444;7.758;2024-01-30T04:57:33;4.20;73.50
79571;DHT22;69034;49.444;7.758;2024-01-30T05:01:34;4.20;73.50
79571;DHT22;69034;49.444;7.758;2024-01-30T05:05:34;4.20;73.50
79571;DHT22;69034;49.444;7.758;2024-01-30T05:09:35;4.20;73.50
79571;DHT22;69034;49.444;7.758;2024-01-30T05:13:35;4.20;73.50
79571;DHT22;69034;49.444;7.758;2024-01-30T05:17:36;4.20;73.40
79571;DHT22;69034;49.444;7.758;2024-01-30T05:21:36;4.20;73.50
79571;DHT22;69034;49.444;7.758;2024-01-30T05:25:37;4.10;73.40
79571;DHT22;69034;49.444;7.758;2024-01-30T05:29:37;4.10;73.40
79571;DHT22;69034;49.444;7.758;2024-01-30T05:33:38;4.10;73.40
79571;DHT22;69034;49.444;7.758;2024-01-30T05:37:39;4.10;73.40
79571;DHT22;69034;49.444;7.758;2024-01-30T05:41:39;4.10;73.50
79571;DHT22;69034;49.444;7.758;2024-01-30T05:45:40;4.10;73.40
79571;DHT22;69034;49.444;7.758;2024-01-30T05:49:41;4.10;73.40
79571;DHT22;69034;49.444;7.758;2024-01-30T05:53:42;4.10;73.50
79571;DHT22;69034;49.444;7.758;2024-01-30T05:57:42;4.10;73.40
79571;DHT22;69034;49.444;7.758;2024-01-30T06:01:47;4.10;73.30
79571;DHT22;69034;49.444;7.758;2024-01-30T06:05:47;4.10;73.40
79571;DHT22;69034;49.444;7.758;2024-01-30T06:09:48;4.00;73.40
79571;DHT22;69034;49.444;7.758;2024-01-30T06:13:49;4.00;73.40
79571;DHT22;69034;49.444;7.758;2024-01-30T06:17:49;4.00;73.30
79571;DHT22;69034;49.444;7.758;2024-01-30T06:21:50;4.10;73.30
79571;DHT22;69034;49.444;7.758;2024-01-30T06:25:50;4.00;73.30
79571;DHT22;69034;49.444;7.758;2024-01-30T06:29:51;4.00;73.30
79571;DHT22;69034;49.444;7.758;2024-01-30T06:33:52;4.00;73.20
79571;DHT22;69034;49.444;7.758;2024-01-30T06:37:53;4.00;73.20
79571;DHT22;69034;49.444;7.758;2024-01-30T06:41:54;4.00;73.20
79571;DHT22;69034;49.444;7.758;2024-01-30T06:45:54;3.90;73.20
79571;DHT22;69034;49.444;7.758;2024-01-30T06:49:55;3.90;73.30
79571;DHT22;69034;49.444;7.758;2024-01-30T06:53:55;3.90;73.30
79571;DHT22;69034;49.444;7.758;2024-01-30T06:57:56;3.90;73.30
79571;DHT22;69034;49.444;7.758;2024-01-30T07:01:57;3.90;73.20
79571;DHT22;69034;49.444;7.758;2024-01-30T07:05:57;3.90;73.20
79571;DHT22;69034;49.444;7.758;2024-01-30T07:09:58;4.00;73.10
79571;DHT22;69034;49.444;7.758;2024-01-30T07:13:58;3.90;73.10
79571;DHT22;69034;49.444;7.758;2024-01-30T07:17:59;3.90;73.10
79571;DHT22;69034;49.444;7.758;2024-01-30T07:22:00;4.00;73.20
79571;DHT22;69034;49.444;7.758;2024-01-30T07:26:04;4.00;73.10
79571;DHT22;69034;49.444;7.758;2024-01-30T07:30:05;4.10;73.20
79571;DHT22;69034;49.444;7.758;2024-01-30T07:34:06;4.10;73.10
79571;DHT22;69034;49.444;7.758;2024-01-30T07:38:07;4.20;73.10
79571;DHT22;69034;49.444;7.758;2024-01-30T07:42:07;4.30;73.10
79571;DHT22;69034;49.444;7.758;2024-01-30T07:46:09;4.40;73.00
79571;DHT22;69034;49.444;7.758;2024-01-30T07:50:09;4.50;72.90
79571;DHT22;69034;49.444;7.758;2024-01-30T07:54:10;4.60;72.90
79571;DHT22;69034;49.444;7.758;2024-01-30T07:58:10;4.70;72.90
79571;DHT22;69034;49.444;7.758;2024-01-30T08:02:16;4.80;72.90
79571;DHT22;69034;49.444;7.758;2024-01-30T08:06:17;4.80;72.80
79571;DHT22;69034;49.444;7.758;2024-01-30T08:10:17;4.90;72.80
79571;DHT22;69034;49.444;7.758;2024-01-30T08:14:21;5.00;72.70
79571;DHT22;69034;49.444;7.758;2024-01-30T08:18:22;5.10;72.60
79571;DHT22;69034;49.444;7.758;2024-01-30T08:22:23;5.30;72.60
79571;DHT22;69034;49.444;7.758;2024-01-30T08:26:25;5.40;72.50
79571;DHT22;69034;49.444;7.758;2024-01-30T08:30:26;5.50;72.50
79571;DHT22;69034;49.444;7.758;2024-01-30T08:34:27;5.60;72.30
79571;DHT22;69034;49.444;7.758;2024-01-30T08:38:27;5.80;72.10
79571;DHT22;69034;49.444;7.758;2024-01-30T08:42:28;6.00;71.90
79571;DHT22;69034;49.444;7.758;2024-01-30T08:46:28;6.10;71.80
79571;DHT22;69034;49.444;7.758;2024-01-30T08:50:29;6.30;71.70
79571;DHT22;69034;49.444;7.758;2024-01-30T08:54:30;6.40;71.60
79571;DHT22;69034;49.444;7.758;2024-01-30T08:58:30;6.60;71.40
79571;DHT22;69034;49.444;7.758;2024-01-30T09:02:31;6.80;71.20
79571;DHT22;69034;49.444;7.758;2024-01-30T09:06:32;7.00;71.10
79571;DHT22;69034;49.444;7.758;2024-01-30T09:10:32;7.30;71.00
79571;DHT22;69034;49.444;7.758;2024-01-30T09:14:33;7.50;70.80
79571;DHT22;69034;49.444;7.758;2024-01-30T09:18:34;7.80;70.60
79571;DHT22;69034;49.444;7.758;2024-01-30T09:22:34;8.00;70.40
79571;DHT22;69034;49.444;7.758;2024-01-30T09:26:36;8.20;70.40
79571;DHT22;69034;49.444;7.758;2024-01-30T09:30:37;8.40;70.40
79571;DHT22;69034;49.444;7.758;2024-01-30T09:34:38;8.50;70.50
79571;DHT22;69034;49.444;7.758;2024-01-30T09:38:39;8.70;70.40
79571;DHT22;69034;49.444;7.758;2024-01-30T09:42:43;8.90;70.20
79571;DHT22;69034;49.444;7.758;2024-01-30T09:46:47;9.10;70.00
79571;DHT22;69034;49.444;7.758;2024-01-30T09:50:52;9.40;69.80
79571;DHT22;69034;49.444;7.758;2024-01-30T09:54:53;9.60;69.70
79571;DHT22;69034;49.444;7.758;2024-01-30T09:58:56;9.90;69.50
79571;DHT22;69034;49.444;7.758;2024-01-30T10:02:58;10.10;69.40
79571;DHT22;69034;49.444;7.758;2024-01-30T10:07:02;10.30;69.20
79571;DHT22;69034;49.444;7.758;2024-01-30T10:11:03;10.50;69.10
79571;DHT22;69034;49.444;7.758;2024-01-30T10:15:07;10.80;69.00
79571;DHT22;69034;49.444;7.758;2024-01-30T10:19:08;11.10;69.10
79571;DHT22;69034;49.444;7.758;2024-01-30T10:23:09;11.40;68.90
79571;DHT22;69034;49.444;7.758;2024-01-30T10:27:10;11.60;68.50
79571;DHT22;69034;49.444;7.758;2024-01-30T10:31:16;11.70;68.60
79571;DHT22;69034;49.444;7.758;2024-01-30T10:35:17;11.80;68.80
79571;DHT22;69034;49.444;7.758;2024-01-30T10:39:18;11.80;69.00
79571;DHT22;69034;49.444;7.758;2024-01-30T10:43:22;11.90;69.20
79571;DHT22;69034;49.444;7.758;2024-01-30T10:47:28;12.00;69.20
79571;DHT22;69034;49.444;7.758;2024-01-30T10:51:31;12.00;69.20
79571;DHT22;69034;49.444;7.758;2024-01-30T10:55:32;12.00;69.30
79571;DHT22;69034;49.444;7.758;2024-01-30T10:59:34;12.10;69.30
79571;DHT22;69034;49.444;7.758;2024-01-30T11:03:35;12.10;69.30
79571;DHT22;69034;49.444;7.758;2024-01-30T11:07:41;12.20;69.50
79571;DHT22;69034;49.444;7.758;2024-01-30T11:11:56;12.30;69.50
79571;DHT22;69034;49.444;7.758;2024-01-30T11:16:04;12.40;69.60
79571;DHT22;69034;49.444;7.758;2024-01-30T11:20:06;12.50;69.50
79571;DHT22;69034;49.444;7.758;2024-01-30T11:24:10;12.60;69.40
79571;DHT22;69034;49.444;7.758;2024-01-30T11:28:15;12.80;69.30
79571;DHT22;69034;49.444;7.758;2024-01-30T11:32:22;13.00;69.10
79571;DHT22;69034;49.444;7.758;2024-01-30T11:36:25;13.20;68.80
79571;DHT22;69034;49.444;7.758;2024-01-30T11:40:28;13.50;68.60
79571;DHT22;69034;49.444;7.758;2024-01-30T11:44:29;13.70;68.40
79571;DHT22;69034;49.444;7.758;2024-01-30T11:48:30;13.90;68.10
79571;DHT22;69034;49.444;7.758;2024-01-30T11:52:30;14.20;67.90
79571;DHT22;69034;49.444;7.758;2024-01-30T11:56:31;14.50;67.70
79571;DHT22;69034;49.444;7.758;2024-01-30T12:00:31;14.70;67.60
79571;DHT22;69034;49.444;7.758;2024-01-30T12:04:33;15.10;67.30
79571;DHT22;69034;49.444;7.758;2024-01-30T12:08:37;15.30;66.90
79571;DHT22;69034;49.444;7.758;2024-01-30T12:12:38;15.60;66.50
79571;DHT22;69034;49.444;7.758;2024-01-30T12:16:39;15.70;66.00
79571;DHT22;69034;49.444;7.758;2024-01-30T12:20:39;16.00;65.60
79571;DHT22;69034;49.444;7.758;2024-01-30T12:24:41;16.30;64.90
79571;DHT22;69034;49.444;7.758;2024-01-30T12:28:48;16.50;64.60
79571;DHT22;69034;49.444;7.758;2024-01-30T12:32:50;16.70;64.00
79571;DHT22;69034;49.444;7.758;2024-01-30T12:36:51;16.80;63.70
79571;DHT22;69034;49.444;7.758;2024-01-30T12:40:55;16.90;63.40
79571;DHT22;69034;49.444;7.758;2024-01-30T12:44:58;17.00;62.80
79571;DHT22;69034;49.444;7.758;2024-01-30T12:48:59;17.20;62.80
79571;DHT22;69034;49.444;7.758;2024-01-30T12:53:00;17.30;62.40
79571;DHT22;69034;49.444;7.758;2024-01-30T12:57:00;17.50;62.20
79571;DHT22;69034;49.444;7.758;2024-01-30T13:01:01;17.60;61.90
79571;DHT22;69034;49.444;7.758;2024-01-30T13:05:03;17.80;61.80
79571;DHT22;69034;49.444;7.758;2024-01-30T13:09:04;17.90;61.50
79571;DHT22;69034;49.444;7.758;2024-01-30T13:13:06;18.00;61.30
79571;DHT22;69034;49.444;7.758;2024-01-30T13:17:06;18.20;61.20
79571;DHT22;69034;49.444;7.758;2024-01-30T13:21:07;18.30;61.10
79571;DHT22;69034;49.444;7.758;2024-01-30T13:25:08;18.30;61.00
79571;DHT22;69034;49.444;7.758;2024-01-30T13:29:08;18.30;61.00
79571;DHT22;69034;49.444;7.758;2024-01-30T13:33:09;18.40;60.90
79571;DHT22;69034;49.444;7.758;2024-01-30T13:37:10;18.40;60.90
79571;DHT22;69034;49.444;7.758;2024-01-30T13:41:11;18.40;60.80
79571;DHT22;69034;49.444;7.758;2024-01-30T13:45:11;18.30;61.00
79571;DHT22;69034;49.444;7.758;2024-01-30T13:49:12;18.20;61.00
79571;DHT22;69034;49.444;7.758;2024-01-30T13:53:12;18.20;61.10
79571;DHT22;69034;49.444;7.758;2024-01-30T13:57:13;18.10;61.20
79571;DHT22;69034;49.444;7.758;2024-01-30T14:01:14;18.00;61.30
79571;DHT22;69034;49.444;7.758;2024-01-30T14:05:15;17.90;61.30
79571;DHT22;69034;49.444;7.758;2024-01-30T14:09:15;17.90;61.60
79571;DHT22;69034;49.444;7.758;2024-01-30T14:13:16;17.70;61.80
79571;DHT22;69034;49.444;7.758;2024-01-30T14:17:18;17.50;62.40
79571;DHT22;69034;49.444;7.758;2024-01-30T14:21:19;17.20;62.80
79571;DHT22;69034;49.444;7.758;2024-01-30T14:25:20;16.80;63.30
79571;DHT22;69034;49.444;7.758;2024-01-30T14:29:20;16.60;63.70
79571;DHT22;69034;49.444;7.758;2024-01-30T14:33:22;16.30;64.10
79571;DHT22;69034;49.444;7.758;2024-01-30T14:37:22;16.10;64.40
79571;DHT22;69034;49.444;7.758;2024-01-30T14:41:23;15.90;64.60
79571;DHT22;69034;49.444;7.758;2024-01-30T14:45:24;15.70;64.80
79571;DHT22;69034;49.444;7.758;2024-01-30T14:49:25;15.60;65.10
79571;DHT22;69034;49.444;7.758;2024-01-30T14:53:26;15.40;65.40
79571;DHT22;69034;49.444;7.758;2024-01-30T14:57:28;15.20;65.50
79571;DHT22;69034;49.444;7.758;2024-01-30T15:01:28;15.10;65.90
79571;DHT22;69034;49.444;7.758;2024-01-30T15:05:29;14.90;66.10
79571;DHT22;69034;49.444;7.758;2024-01-30T15:09:31;14.70;66.30
79571;DHT22;69034;49.444;7.758;2024-01-30T15:13:32;14.50;66.70
79571;DHT22;69034;49.444;7.758;2024-01-30T15:17:34;14.30;67.00
79571;DHT22;69034;49.444;7.758;2024-01-30T15:21:35;14.20;67.30
79571;DHT22;69034;49.444;7.758;2024-01-30T15:25:35;14.10;67.50
79571;DHT22;69034;49.444;7.758;2024-01-30T15:29:36;13.90;67.70
79571;DHT22;69034;49.444;7.758;2024-01-30T15:33:36;13.80;67.90
79571;DHT22;69034;49.444;7.758;2024-01-30T15:37:37;13.70;68.10
79571;DHT22;69034;49.444;7.758;2024-01-30T15:41:40;13.60;68.30
79571;DHT22;69034;49.444;7.758;2024-01-30T15:45:41;13.70;68.30
79571;DHT22;69034;49.444;7.758;2024-01-30T15:49:41;13.70;68.10
79571;DHT22;69034;49.444;7.758;2024-01-30T15:53:42;13.50;68.50
79571;DHT22;69034;49.444;7.758;2024-01-30T15:57:43;13.40;68.80
79571;DHT22;69034;49.444;7.758;2024-01-30T16:01:43;13.30;69.20
79571;DHT22;69034;49.444;7.758;2024-01-30T16:05:50;13.10;69.40
79571;DHT22;69034;49.444;7.758;2024-01-30T16:09:51;13.00;69.50
79571;DHT22;69034;49.444;7.758;2024-01-30T16:13:51;12.90;69.70
79571;DHT22;69034;49.444;7.758;2024-01-30T16:17:52;12.80;69.80
79571;DHT22;69034;49.444;7.758;2024-01-30T16:21:53;12.70;70.00
79571;DHT22;69034;49.444;7.758;2024-01-30T16:25:54;12.60;70.20
79571;DHT22;69034;49.444;7.758;2024-01-30T16:29:55;12.60;70.40
79571;DHT22;69034;49.444;7.758;2024-01-30T16:33:55;12.50;70.60
79571;DHT22;69034;49.444;7.758;2024-01-30T16:37:57;12.40;70.70
79571;DHT22;69034;49.444;7.758;2024-01-30T16:41:58;12.40;70.90
79571;DHT22;69034;49.444;7.758;2024-01-30T16:45:59;12.30;71.00
79571;DHT22;69034;49.444;7.758;2024-01-30T16:50:00;12.20;71.20
79571;DHT22;69034;49.444;7.758;2024-01-30T16:54:00;12.20;71.30
79571;DHT22;69034;49.444;7.758;2024-01-30T16:58:02;12.20;71.50
79571;DHT22;69034;49.444;7.758;2024-01-30T17:02:02;12.10;71.60
79571;DHT22;69034;49.444;7.758;2024-01-30T17:06:04;12.10;71.70
79571;DHT22;69034;49.444;7.758;2024-01-30T17:10:12;12.10;71.80
79571;DHT22;69034;49.444;7.758;2024-01-30T17:14:16;12.00;72.00
79571;DHT22;69034;49.444;7.758;2024-01-30T17:18:18;12.00;72.10
79571;DHT22;69034;49.444;7.758;2024-01-30T17:22:26;12.00;72.30
79571;DHT22;69034;49.444;7.758;2024-01-30T17:26:29;12.00;72.30
79571;DHT22;69034;49.444;7.758;2024-01-30T17:30:31;11.90;72.50
79571;DHT22;69034;49.444;7.758;2024-01-30T17:34:31;12.00;73.40
79571;DHT22;69034;49.444;7.758;2024-01-30T17:38:32;12.20;73.70
79571;DHT22;69034;49.444;7.758;2024-01-30T17:42:32;12.40;73.50
79571;DHT22;69034;49.444;7.758;2024-01-30T17:46:34;12.60;73.30
79571;DHT22;69034;49.444;7.758;2024-01-30T17:50:35;13.10;72.90
79571;DHT22;69034;49.444;7.758;2024-01-30T17:54:35;13.40;72.20
79571;DHT22;69034;49.444;7.758;2024-01-30T17:58:37;13.40;72.30
79571;DHT22;69034;49.444;7.758;2024-01-30T18:02:41;13.40;72.50
79571;DHT22;69034;49.444;7.758;2024-01-30T18:06:42;13.30;72.50
79571;DHT22;69034;49.444;7.758;2024-01-30T18:10:43;13.30;72.50
79571;DHT22;69034;49.444;7.758;2024-01-30T18:14:44;13.30;72.60
79571;DHT22;69034;49.444;7.758;2024-01-30T18:18:44;13.30;72.50
79571;DHT22;69034;49.444;7.758;2024-01-30T18:22:48;13.30;72.50
79571;DHT22;69034;49.444;7.758;2024-01-30T18:26:50;13.30;72.50
79571;DHT22;69034;49.444;7.758;2024-01-30T18:30:52;13.30;72.50
79571;DHT22;69034;49.444;7.758;2024-01-30T18:34:54;13.30;72.40
79571;DHT22;69034;49.444;7.758;2024-01-30T18:38:55;13.10;72.50
79571;DHT22;69034;49.444;7.758;2024-01-30T18:42:56;12.90;72.90
79571;DHT22;69034;49.444;7.758;2024-01-30T18:46:58;12.80;73.20
79571;DHT22;69034;49.444;7.758;2024-01-30T18:50:59;12.60;73.30
79571;DHT22;69034;49.444;7.758;2024-01-30T18:55:00;12.80;73.90
79571;DHT22;69034;49.444;7.758;2024-01-30T18:59:00;13.00;72.80
79571;DHT22;69034;49.444;7.758;2024-01-30T19:03:04;12.90;72.90
79571;DHT22;69034;49.444;7.758;2024-01-30T19:07:06;12.70;73.20
79571;DHT22;69034;49.444;7.758;2024-01-30T19:11:06;12.60;73.50
79571;DHT22;69034;49.444;7.758;2024-01-30T19:15:07;12.50;73.80
79571;DHT22;69034;49.444;7.758;2024-01-30T19:19:09;12.40;73.90
79571;DHT22;69034;49.444;7.758;2024-01-30T19:23:13;12.40;74.00
79571;DHT22;69034;49.444;7.758;2024-01-30T19:27:14;12.30;74.10
79571;DHT22;69034;49.444;7.758;2024-01-30T19:31:15;12.30;74.20
79571;DHT22;69034;49.444;7.758;2024-01-30T19:35:15;12.20;74.30
79571;DHT22;69034;49.444;7.758;2024-01-30T19:39:16;12.20;74.40
79571;DHT22;69034;49.444;7.758;2024-01-30T19:43:19;12.10;74.50
79571;DHT22;69034;49.444;7.758;2024-01-30T19:47:19;12.10;74.50
79571;DHT22;69034;49.444;7.758;2024-01-30T19:51:21;12.10;74.60
79571;DHT22;69034;49.444;7.758;2024-01-30T19:55:21;12.10;74.60
79571;DHT22;69034;49.444;7.758;2024-01-30T19:59:22;12.00;74.70
79571;DHT22;69034;49.444;7.758;2024-01-30T20:03:24;12.00;74.70
79571;DHT22;69034;49.444;7.758;2024-01-30T20:07:27;12.00;74.80
79571;DHT22;69034;49.444;7.758;2024-01-30T20:11:27;12.00;74.80
79571;DHT22;69034;49.444;7.758;2024-01-30T20:15:28;12.00;74.90
79571;DHT22;69034;49.444;7.758;2024-01-30T20:19:29;12.00;74.90
79571;DHT22;69034;49.444;7.758;2024-01-30T20:23:30;12.50;74.60
79571;DHT22;69034;49.444;7.758;2024-01-30T20:27:32;12.50;74.20
79571;DHT22;69034;49.444;7.758;2024-01-30T20:31:34;12.40;74.50
79571;DHT22;69034;49.444;7.758;2024-01-30T20:35:34;12.20;74.80
79571;DHT22;69034;49.444;7.758;2024-01-30T20:39:35;12.20;74.90
79571;DHT22;69034;49.444;7.758;2024-01-30T20:43:35;12.10;75.10
79571;DHT22;69034;49.444;7.758;2024-01-30T20:47:36;12.00;75.20
79571;DHT22;69034;49.444;7.758;2024-01-30T20:51:37;12.00;75.20
79571;DHT22;69034;49.444;7.758;2024-01-30T20:55:37;12.00;75.30
79571;DHT22;69034;49.444;7.758;2024-01-30T20:59:38;11.90;75.30
79571;DHT22;69034;49.444;7.758;2024-01-30T21:03:39;11.90;75.30
79571;DHT22;69034;49.444;7.758;2024-01-30T21:07:40;11.90;75.30
79571;DHT22;69034;49.444;7.758;2024-01-30T21:11:40;12.30;75.90
79571;DHT22;69034;49.444;7.758;2024-01-30T21:15:43;12.70;74.30
79571;DHT22;69034;49.444;7.758;2024-01-30T21:19:43;12.60;74.40
79571;DHT22;69034;49.444;7.758;2024-01-30T21:23:44;12.40;74.90
79571;DHT22;69034;49.444;7.758;2024-01-30T21:27:45;12.30;75.70
79571;DHT22;69034;49.444;7.758;2024-01-30T21:31:45;12.40;76.00
79571;DHT22;69034;49.444;7.758;2024-01-30T21:35:47;12.60;75.90
79571;DHT22;69034;49.444;7.758;2024-01-30T21:39:47;12.70;75.70
79571;DHT22;69034;49.444;7.758;2024-01-30T21:43:48;12.80;75.50
79571;DHT22;69034;49.444;7.758;2024-01-30T21:47:48;12.90;75.30
79571;DHT22;69034;49.444;7.758;2024-01-30T21:51:49;12.90;75.20
79571;DHT22;69034;49.444;7.758;2024-01-30T21:55:52;13.00;75.20
79571;DHT22;69034;49.444;7.758;2024-01-30T21:59:53;13.00;75.10
79571;DHT22;69034;49.444;7.758;2024-01-30T22:03:53;13.00;75.00
79571;DHT22;69034;49.444;7.758;2024-01-30T22:07:54;13.00;75.00
79571;DHT22;69034;49.444;7.758;2024-01-30T22:11:55;13.10;74.90
79571;DHT22;69034;49.444;7.758;2024-01-30T22:15:55;13.10;74.80
79571;DHT22;69034;49.444;7.758;2024-01-30T22:19:56;13.10;74.80
79571;DHT22;69034;49.444;7.758;2024-01-30T22:23:57;13.10;74.70
79571;DHT22;69034;49.444;7.758;2024-01-30T22:27:57;12.90;74.80
79571;DHT22;69034;49.444;7.758;2024-01-30T22:31:58;12.70;75.00
79571;DHT22;69034;49.444;7.758;2024-01-30T22:36:00;12.60;75.30
79571;DHT22;69034;49.444;7.758;2024-01-30T22:40:01;12.50;75.50
79571;DHT22;69034;49.444;7.758;2024-01-30T22:44:02;12.40;75.60
79571;DHT22;69034;49.444;7.758;2024-01-30T22:48:03;12.30;75.80
79571;DHT22;69034;49.444;7.758;2024-01-30T22:52:03;12.20;75.80
79571;DHT22;69034;49.444;7.758;2024-01-30T22:56:04;12.20;75.90
79571;DHT22;69034;49.444;7.758;2024-01-30T23:00:06;12.10;76.00
79571;DHT22;69034;49.444;7.758;2024-01-30T23:04:15;12.10;76.00
79571;DHT22;69034;49.444;7.758;2024-01-30T23:08:16;12.00;76.10
79571;DHT22;69034;49.444;7.758;2024-01-30T23:12:17;12.00;76.10
79571;DHT22;69034;49.444;7.758;2024-01-30T23:16:17;12.00;76.20
79571;DHT22;69034;49.444;7.758;2024-01-30T23:20:18;12.00;76.20
79571;DHT22;69034;49.444;7.758;2024-01-30T23:24:19;11.90;76.20
79571;DHT22;69034;49.444;7.758;2024-01-30T23:28:20;11.90;76.30
79571;DHT22;69034;49.444;7.758;2024-01-30T23:32:20;11.90;76.30
79571;DHT22;69034;49.444;7.758;2024-01-30T23:36:21;11.90;76.30
79571;DHT22;69034;49.444;7.758;2024-01-30T23:40:22;11.90;76.40
79571;DHT22;69034;49.444;7.758;2024-01-30T23:44:23;11.90;76.40
79571;DHT22;69034;49.444;7.758;2024-01-30T23:48:23;11.80;76.40
79571;DHT22;69034;49.444;7.758;2024-01-30T23:52:24;11.80;76.40
79571;DHT22;69034;49.444;7.758;2024-01-30T23:56:25;11.80;76.40
